Time;durP1;ratioP1;P1;durP2;ratioP2;P2;SDS_P1;SDS_P2;PMS_P1;PMS_P2;Temp;Humidity;BMP_temperature;BMP_pressure;BME280_temperature;BME280_humidity;BME280_pressure;Samples;Min_cycle;Max_cycle;Signal;HPM_P1;HPM_P2
2023/02/02 00:01:17;;;;;;;21.90;9.30;;;7.60;99.90;;;;;;5066740;28;20577;-70
2023/02/02 00:03:44;;;;;;;23.50;9.83;;;7.60;99.90;;;;;;5068229;28;20466;-70
2023/02/02 00:06:13;;;;;;;19.87;9.20;;;7.60;99.90;;;;;;5065712;28;20458;-70
2023/02/02 00:08:40;;;;;;;18.20;9.47;;;7.60;99.90;;;;;;5069869;28;20469;-70
2023/02/02 00:11:07;;;;;;;17.37;8.93;;;7.60;99.90;;;;;;5069960;28;20803;-70
2023/02/02 00:13:34;;;;;;;18.03;10.63;;;7.60;99.90;;;;;;5068364;28;20455;-70
2023/02/02 00:16:34;;;;;;;17.53;9.20;;;7.60;99.90;;;;;;5069166;28;20454;-71
2023/02/02 00:19:02;;;;;;;16.77;8.73;;;7.70;99.90;;;;;;5075913;28;20549;-71
2023/02/02 00:21:31;;;;;;;15.97;9.40;;;7.60;99.90;;;;;;5070039;28;20509;-70
2023/02/02 00:23:58;;;;;;;22.63;8.90;;;7.50;99.90;;;;;;5067196;28;20461;-70
2023/02/02 00:26:25;;;;;;;31.10;10.23;;;7.50;99.90;;;;;;5070883;28;20692;-71
2023/02/02 00:28:53;;;;;;;19.37;8.80;;;7.50;99.90;;;;;;5065794;28;21238;-71
2023/02/02 00:31:19;;;;;;;19.97;8.90;;;7.50;99.90;;;;;;5065806;28;20463;-72
2023/02/02 00:33:47;;;;;;;16.63;8.00;;;7.40;99.90;;;;;;5065032;28;20854;-71
2023/02/02 00:36:14;;;;;;;18.40;9.07;;;7.40;99.90;;;;;;5068573;28;20520;-71
2023/02/02 00:38:43;;;;;;;20.93;8.73;;;7.50;99.90;;;;;;5067384;28;20860;-70
2023/02/02 00:41:09;;;;;;;15.43;9.40;;;7.50;99.90;;;;;;5074339;28;20492;-71
2023/02/02 00:43:36;;;;;;;14.57;8.80;;;7.60;99.90;;;;;;5074207;28;20831;-71
2023/02/02 00:46:02;;;;;;;20.83;9.10;;;7.60;99.90;;;;;;5071452;28;20889;-71
2023/02/02 00:48:29;;;;;;;17.13;8.70;;;7.60;99.90;;;;;;5070125;28;20677;-71
2023/02/02 00:50:56;;;;;;;27.37;9.77;;;7.60;99.90;;;;;;5067227;28;20466;-71
2023/02/02 00:53:23;;;;;;;10.00;7.13;;;7.60;99.90;;;;;;5063591;28;20558;-71
2023/02/02 00:55:51;;;;;;;18.77;9.30;;;7.60;99.90;;;;;;5073020;28;20473;-71
2023/02/02 00:58:18;;;;;;;14.13;8.50;;;7.50;99.90;;;;;;5071006;28;20516;-70
2023/02/02 01:00:45;;;;;;;19.27;8.30;;;7.50;99.90;;;;;;5068635;28;20840;-70
2023/02/02 01:03:12;;;;;;;22.97;8.87;;;7.50;99.90;;;;;;5059567;28;20491;-71
2023/02/02 01:05:39;;;;;;;21.03;7.93;;;7.50;99.90;;;;;;5067342;28;20696;-71
2023/02/02 01:08:07;;;;;;;15.30;8.23;;;7.50;99.90;;;;;;5074781;28;20458;-71
2023/02/02 01:10:34;;;;;;;19.07;8.90;;;7.50;99.90;;;;;;5073921;28;20474;-71
2023/02/02 01:13:04;;;;;;;16.03;8.40;;;7.40;99.90;;;;;;5069360;28;20496;-70
2023/02/02 01:15:30;;;;;;;21.67;8.20;;;7.40;99.90;;;;;;5064351;28;20463;-71
2023/02/02 01:17:57;;;;;;;12.93;6.97;;;7.30;99.90;;;;;;5069733;28;21238;-70
2023/02/02 01:20:24;;;;;;;15.80;7.40;;;7.30;99.90;;;;;;5070870;28;20461;-71
2023/02/02 01:22:52;;;;;;;20.20;7.80;;;7.30;99.90;;;;;;5072302;28;20482;-71
2023/02/02 01:25:19;;;;;;;16.93;9.33;;;7.30;99.90;;;;;;5069824;28;20915;-71
2023/02/02 01:27:46;;;;;;;21.67;8.00;;;7.30;99.90;;;;;;5071158;28;20905;-71
2023/02/02 01:30:14;;;;;;;11.83;7.70;;;7.30;99.90;;;;;;5074196;28;20493;-71
2023/02/02 01:32:41;;;;;;;16.80;7.70;;;7.40;99.90;;;;;;5066031;28;20477;-71
2023/02/02 01:35:09;;;;;;;21.80;9.07;;;7.30;99.90;;;;;;5065664;28;20616;-71
2023/02/02 01:37:36;;;;;;;26.60;8.20;;;7.40;99.90;;;;;;5065728;28;20455;-71
2023/02/02 01:40:03;;;;;;;15.33;8.33;;;7.40;99.90;;;;;;5069555;28;20497;-69
2023/02/02 01:42:30;;;;;;;13.60;8.37;;;7.40;99.90;;;;;;5067564;28;20513;-69
2023/02/02 01:45:25;;;;;;;9.13;7.50;;;7.40;99.90;;;;;;5063394;28;20543;-68
2023/02/02 01:47:56;;;;;;;17.27;7.83;;;7.50;99.90;;;;;;5062717;28;20451;-68
2023/02/02 01:50:26;;;;;;;11.47;7.77;;;7.50;99.90;;;;;;5063657;28;20515;-68
2023/02/02 01:52:57;;;;;;;18.37;8.70;;;7.50;99.90;;;;;;5060429;28;20919;-69
2023/02/02 01:55:26;;;;;;;12.20;8.40;;;7.50;99.90;;;;;;5060713;28;20470;-69
2023/02/02 01:57:56;;;;;;;23.70;8.90;;;7.50;99.90;;;;;;5068209;28;20485;-69
2023/02/02 02:00:26;;;;;;;29.17;8.33;;;7.40;99.90;;;;;;5071604;28;20510;-69
2023/02/02 02:02:56;;;;;;;11.40;8.10;;;7.40;99.90;;;;;;5064068;28;20483;-69
2023/02/02 02:05:26;;;;;;;15.50;8.50;;;7.40;99.90;;;;;;5068348;28;20472;-69
2023/02/02 02:07:57;;;;;;;13.63;8.80;;;7.40;99.90;;;;;;5060651;28;20466;-69
2023/02/02 02:10:24;;;;;;;15.80;8.10;;;7.50;99.90;;;;;;5062339;28;20472;-69
2023/02/02 02:12:51;;;;;;;19.37;8.53;;;7.50;99.90;;;;;;5064343;28;20467;-70
2023/02/02 02:18:15;;;;;;;21.80;8.23;;;7.50;99.90;;;;;;5072845;28;20473;-69
2023/02/02 02:28:03;;;;;;;18.57;8.80;;;7.60;99.90;;;;;;5066472;28;20512;-69
2023/02/02 02:30:48;;;;;;;23.17;9.17;;;7.60;99.90;;;;;;5070967;28;20460;-69
2023/02/02 02:33:26;;;;;;;10.03;8.03;;;7.70;99.90;;;;;;5066198;28;20462;-69
2023/02/02 02:36:02;;;;;;;15.53;9.10;;;7.70;99.90;;;;;;5064363;28;21077;-69
2023/02/02 02:38:36;;;;;;;26.27;9.80;;;7.70;99.90;;;;;;5065007;28;20882;-69
2023/02/02 02:41:08;;;;;;;21.37;10.37;;;7.70;99.90;;;;;;5065402;28;20489;-69
2023/02/02 02:43:40;;;;;;;17.73;9.70;;;7.70;99.90;;;;;;5061555;28;20491;-70
2023/02/02 02:46:09;;;;;;;26.47;11.90;;;7.70;99.90;;;;;;5069603;28;20773;-69
2023/02/02 02:48:37;;;;;;;20.00;13.40;;;7.60;99.90;;;;;;5078296;28;20479;-69
2023/02/02 02:51:28;;;;;;;15.97;12.10;;;7.60;99.90;;;;;;5072963;28;20653;-69
2023/02/02 02:53:56;;;;;;;14.53;12.70;;;7.50;99.90;;;;;;5074590;28;20967;-69
2023/02/02 02:56:32;;;;;;;17.73;12.40;;;7.50;99.90;;;;;;5072489;28;20486;-69
2023/02/02 02:59:07;;;;;;;26.50;13.13;;;7.40;99.90;;;;;;5073026;28;20465;-70
2023/02/02 03:01:39;;;;;;;23.90;12.20;;;7.50;99.90;;;;;;5066039;28;20959;-70
2023/02/02 03:04:12;;;;;;;14.93;10.87;;;7.50;99.90;;;;;;5071970;28;20490;-70
2023/02/02 03:06:46;;;;;;;23.20;12.53;;;7.50;99.90;;;;;;5065949;28;20530;-70
2023/02/02 03:09:19;;;;;;;19.27;12.67;;;7.40;99.90;;;;;;5065058;28;20470;-70
2023/02/02 03:11:46;;;;;;;19.10;10.70;;;7.50;99.90;;;;;;5070877;28;20455;-70
2023/02/02 03:14:13;;;;;;;16.17;11.20;;;7.50;99.90;;;;;;5078624;28;20462;-69
2023/02/02 03:16:40;;;;;;;29.10;9.70;;;7.50;99.90;;;;;;5072669;28;20514;-69
2023/02/02 03:19:09;;;;;;;16.37;9.87;;;7.60;99.90;;;;;;5070676;28;20467;-69
2023/02/02 03:21:36;;;;;;;17.63;10.30;;;7.50;99.90;;;;;;5065426;28;20823;-69
2023/02/02 03:24:03;;;;;;;20.53;8.80;;;7.60;99.90;;;;;;5067880;28;20485;-69
2023/02/02 03:26:30;;;;;;;14.03;8.70;;;7.60;99.90;;;;;;5064554;28;20739;-69
2023/02/02 03:28:57;;;;;;;17.93;8.10;;;7.60;99.90;;;;;;5066853;28;20467;-70
2023/02/02 03:31:26;;;;;;;14.13;9.60;;;7.60;99.90;;;;;;5067985;28;20455;-69
2023/02/02 03:33:53;;;;;;;16.33;9.03;;;7.70;99.90;;;;;;5068130;28;20463;-69
2023/02/02 03:36:22;;;;;;;17.60;8.80;;;7.70;99.90;;;;;;5068921;28;20867;-70
2023/02/02 03:38:49;;;;;;;14.47;8.43;;;7.70;99.90;;;;;;5072513;28;20467;-69
2023/02/02 03:41:16;;;;;;;18.53;10.30;;;7.70;99.90;;;;;;5068525;28;20459;-69
2023/02/02 03:43:43;;;;;;;30.67;9.60;;;7.70;99.90;;;;;;5075416;28;20501;-70
2023/02/02 03:46:09;;;;;;;23.07;9.23;;;7.80;99.90;;;;;;5069618;28;20463;-69
2023/02/02 03:48:38;;;;;;;13.20;8.00;;;7.70;99.90;;;;;;5074722;28;20468;-71
2023/02/02 03:51:10;;;;;;;22.03;9.63;;;7.70;99.90;;;;;;5072329;28;20461;-71
2023/02/02 03:53:38;;;;;;;22.00;8.90;;;7.80;99.90;;;;;;5068391;28;20569;-69
2023/02/02 03:56:06;;;;;;;18.00;9.20;;;7.80;99.90;;;;;;5066880;28;20462;-69
2023/02/02 03:58:33;;;;;;;20.53;8.90;;;7.80;99.90;;;;;;5069239;28;20463;-69
2023/02/02 04:01:03;;;;;;;25.93;9.33;;;7.70;99.90;;;;;;5060090;28;20969;-69
2023/02/02 04:03:30;;;;;;;15.47;8.37;;;7.80;99.90;;;;;;5068391;28;20572;-69
2023/02/02 04:05:56;;;;;;;18.43;9.50;;;7.70;99.90;;;;;;5074410;28;20477;-69
2023/02/02 04:08:23;;;;;;;17.70;9.13;;;7.70;99.90;;;;;;5066175;28;20809;-69
2023/02/02 04:10:53;;;;;;;20.33;10.50;;;7.70;99.90;;;;;;5073671;28;20521;-69
2023/02/02 04:13:20;;;;;;;22.07;14.53;;;7.70;99.90;;;;;;5070210;28;20836;-68
2023/02/02 04:15:47;;;;;;;18.07;13.67;;;7.60;99.90;;;;;;5068512;28;20466;-68
2023/02/02 04:18:14;;;;;;;16.77;14.33;;;7.50;99.90;;;;;;5071028;28;20826;-68
2023/02/02 04:20:41;;;;;;;27.20;14.53;;;7.50;99.90;;;;;;5075095;28;20547;-69
2023/02/02 04:23:08;;;;;;;22.13;15.40;;;7.40;99.90;;;;;;5062232;28;20521;-68
2023/02/02 04:25:35;;;;;;;17.80;14.00;;;7.40;99.90;;;;;;5074023;28;21168;-68
2023/02/02 04:28:03;;;;;;;23.43;14.20;;;7.40;99.90;;;;;;5064335;28;20471;-68
2023/02/02 04:30:30;;;;;;;25.27;14.07;;;7.40;99.90;;;;;;5071634;28;20463;-68
2023/02/02 04:32:57;;;;;;;19.47;13.57;;;7.40;99.90;;;;;;5067001;28;20800;-69
2023/02/02 04:35:24;;;;;;;21.93;13.60;;;7.40;99.90;;;;;;5068049;28;20549;-68
2023/02/02 04:37:50;;;;;;;20.40;13.73;;;7.40;99.90;;;;;;5063734;28;20465;-68
2023/02/02 04:40:17;;;;;;;23.80;14.00;;;7.40;99.90;;;;;;5067677;28;20485;-68
2023/02/02 04:42:44;;;;;;;13.80;12.47;;;7.40;99.90;;;;;;5067002;28;20577;-69
2023/02/02 04:45:13;;;;;;;32.63;15.70;;;7.40;99.90;;;;;;5077095;28;20497;-68
2023/02/02 04:47:40;;;;;;;18.07;12.80;;;7.40;99.90;;;;;;5070538;28;20459;-68
2023/02/02 04:50:08;;;;;;;19.40;14.10;;;7.50;99.90;;;;;;5070461;28;20571;-68
2023/02/02 04:52:35;;;;;;;17.20;13.27;;;7.50;99.90;;;;;;5064897;28;20537;-69
2023/02/02 04:55:02;;;;;;;20.70;13.90;;;7.40;99.90;;;;;;5068704;28;20463;-68
2023/02/02 04:57:29;;;;;;;24.07;13.63;;;7.40;99.90;;;;;;5066601;28;20484;-68
2023/02/02 04:59:55;;;;;;;22.60;13.67;;;7.40;99.90;;;;;;5062691;28;20506;-68
2023/02/02 05:02:24;;;;;;;14.27;12.90;;;7.40;99.90;;;;;;5063886;28;20495;-68
2023/02/02 05:04:50;;;;;;;17.57;13.40;;;7.40;99.90;;;;;;5071183;28;20504;-68
2023/02/02 05:07:17;;;;;;;28.47;13.93;;;7.40;99.90;;;;;;5068389;28;20475;-68
2023/02/02 05:09:44;;;;;;;25.27;15.80;;;7.40;99.90;;;;;;5067111;28;21026;-68
2023/02/02 05:12:11;;;;;;;26.73;14.67;;;7.40;99.90;;;;;;5068790;28;20459;-68
2023/02/02 05:14:38;;;;;;;18.03;12.90;;;7.40;99.90;;;;;;5065949;28;20495;-68
2023/02/02 05:17:04;;;;;;;15.87;13.07;;;7.40;99.90;;;;;;5067798;28;20451;-69
2023/02/02 05:19:33;;;;;;;25.67;14.70;;;7.30;99.90;;;;;;5070557;28;20976;-69
2023/02/02 05:21:59;;;;;;;27.37;14.53;;;7.30;99.90;;;;;;5070742;28;20510;-69
2023/02/02 05:24:26;;;;;;;28.93;14.10;;;7.40;99.90;;;;;;5067982;28;20553;-69
2023/02/02 05:26:57;;;;;;;20.37;13.87;;;7.30;99.90;;;;;;5066326;28;20465;-69
2023/02/02 05:29:25;;;;;;;26.87;13.60;;;7.30;99.90;;;;;;5064793;28;20473;-69
2023/02/02 05:31:52;;;;;;;22.03;13.07;;;7.30;99.90;;;;;;5067371;28;20713;-69
2023/02/02 05:34:19;;;;;;;25.67;14.17;;;7.30;99.90;;;;;;5070309;28;21059;-70
2023/02/02 05:36:48;;;;;;;58.77;15.13;;;7.30;99.90;;;;;;5069122;28;20478;-69
2023/02/02 05:39:14;;;;;;;20.23;14.27;;;7.30;99.90;;;;;;5069813;28;20497;-69
2023/02/02 05:41:41;;;;;;;22.33;14.73;;;7.20;99.90;;;;;;5066521;28;20808;-68
2023/02/02 05:44:11;;;;;;;19.50;13.43;;;7.20;99.90;;;;;;5067386;28;20493;-69
2023/02/02 05:46:38;;;;;;;18.73;13.80;;;7.10;99.90;;;;;;5066913;28;20465;-69
2023/02/02 05:49:05;;;;;;;28.80;14.53;;;7.10;99.90;;;;;;5066929;28;20467;-69
2023/02/02 05:51:35;;;;;;;32.97;17.10;;;7.10;99.90;;;;;;5067905;28;20835;-69
2023/02/02 05:54:04;;;;;;;22.77;19.27;;;7.10;99.90;;;;;;5065970;28;20487;-69
2023/02/02 05:56:31;;;;;;;32.33;21.27;;;7.10;99.90;;;;;;5065105;28;20478;-69
2023/02/02 05:58:58;;;;;;;26.30;23.30;;;7.00;99.90;;;;;;5060598;28;20459;-69
2023/02/02 06:01:25;;;;;;;35.40;24.33;;;7.00;99.90;;;;;;5073578;28;20460;-69
2023/02/02 06:03:52;;;;;;;28.27;22.60;;;7.00;99.90;;;;;;5070856;28;20976;-69
2023/02/02 06:06:19;;;;;;;28.83;22.13;;;7.00;99.90;;;;;;5065783;28;20470;-69
2023/02/02 06:08:46;;;;;;;25.73;22.90;;;7.00;99.90;;;;;;5068749;28;20458;-69
2023/02/02 06:11:16;;;;;;;28.17;25.37;;;7.00;99.90;;;;;;5067984;28;20688;-69
2023/02/02 06:13:44;;;;;;;28.53;25.53;;;7.00;99.90;;;;;;5067833;28;20600;-68
2023/02/02 06:16:11;;;;;;;26.27;23.60;;;7.00;99.90;;;;;;5070015;28;20459;-70
2023/02/02 06:18:38;;;;;;;31.87;26.50;;;6.90;99.90;;;;;;5071747;28;20991;-70
2023/02/02 06:21:06;;;;;;;41.87;25.67;;;6.90;99.90;;;;;;5071718;28;20458;-69
2023/02/02 06:23:34;;;;;;;27.20;22.60;;;6.90;99.90;;;;;;5072187;28;20984;-70
2023/02/02 06:26:03;;;;;;;33.50;24.63;;;6.90;99.90;;;;;;5069580;28;21006;-70
2023/02/02 06:28:32;;;;;;;26.63;23.90;;;6.90;99.90;;;;;;5067426;28;20465;-69
2023/02/02 06:31:04;;;;;;;28.80;23.83;;;6.80;99.90;;;;;;5071178;28;20489;-70
2023/02/02 06:33:31;;;;;;;29.20;24.40;;;6.90;99.90;;;;;;5078496;28;20479;-70
2023/02/02 06:36:00;;;;;;;34.57;24.13;;;6.90;99.90;;;;;;5075069;28;20461;-70
2023/02/02 06:38:27;;;;;;;26.67;23.83;;;6.90;99.90;;;;;;5064293;28;20551;-70
2023/02/02 06:40:54;;;;;;;31.40;23.83;;;6.90;99.90;;;;;;5068739;28;20497;-69
2023/02/02 06:43:21;;;;;;;29.80;24.87;;;7.00;99.90;;;;;;5066477;28;20580;-70
2023/02/02 06:45:49;;;;;;;33.20;24.20;;;7.00;99.90;;;;;;5070867;28;20462;-70
2023/02/02 06:48:16;;;;;;;30.87;23.23;;;7.00;99.90;;;;;;5076000;28;20455;-70
2023/02/02 06:50:43;;;;;;;32.90;24.10;;;7.00;99.90;;;;;;5080674;28;20887;-70
2023/02/02 06:53:10;;;;;;;30.10;25.10;;;7.00;99.90;;;;;;5069147;28;20466;-70
2023/02/02 06:55:36;;;;;;;42.53;24.40;;;7.00;99.90;;;;;;5073112;28;20531;-69
2023/02/02 06:58:03;;;;;;;25.43;22.70;;;7.00;99.90;;;;;;5062051;28;20969;-70
2023/02/02 07:00:30;;;;;;;31.03;23.83;;;7.00;99.90;;;;;;5073235;28;21428;-69
2023/02/02 07:02:59;;;;;;;28.30;24.20;;;7.00;99.90;;;;;;5073079;28;21131;-70
2023/02/02 07:05:27;;;;;;;28.20;24.77;;;7.00;99.90;;;;;;5070568;28;20493;-70
2023/02/02 07:07:54;;;;;;;33.50;25.00;;;7.00;99.90;;;;;;5070258;28;20470;-70
2023/02/02 07:10:21;;;;;;;25.40;22.93;;;7.00;99.90;;;;;;5070031;28;20468;-70
2023/02/02 07:12:48;;;;;;;29.87;23.60;;;6.90;99.90;;;;;;5065230;28;20469;-70
2023/02/02 07:15:15;;;;;;;24.47;22.20;;;7.00;99.90;;;;;;5068472;28;20533;-70
2023/02/02 07:17:42;;;;;;;32.30;24.47;;;6.90;99.90;;;;;;5078769;28;20465;-70
2023/02/02 07:20:11;;;;;;;33.40;23.93;;;6.90;99.90;;;;;;5078270;28;20465;-71
2023/02/02 07:22:38;;;;;;;33.80;24.43;;;7.00;99.90;;;;;;5068623;28;20468;-70
2023/02/02 07:25:06;;;;;;;41.00;23.30;;;7.00;99.90;;;;;;5072558;28;21064;-70
2023/02/02 07:27:33;;;;;;;25.13;22.80;;;6.90;99.90;;;;;;5067472;28;20455;-70
2023/02/02 07:30:01;;;;;;;31.13;24.57;;;6.90;99.90;;;;;;5075934;28;20474;-70
2023/02/02 07:32:27;;;;;;;28.53;23.50;;;6.90;99.90;;;;;;5076707;28;20454;-70
2023/02/02 07:34:55;;;;;;;45.33;24.00;;;6.90;99.90;;;;;;5067759;28;20463;-69
2023/02/02 07:37:24;;;;;;;28.43;23.67;;;7.00;99.90;;;;;;5074144;28;20615;-69
2023/02/02 07:39:50;;;;;;;34.37;24.30;;;7.00;99.90;;;;;;5066331;28;20475;-70
2023/02/02 07:42:17;;;;;;;37.63;24.10;;;6.90;99.90;;;;;;5067434;28;20983;-70
2023/02/02 07:44:44;;;;;;;24.73;21.43;;;7.00;99.90;;;;;;5066393;28;21082;-70
2023/02/02 07:47:11;;;;;;;30.27;22.70;;;7.00;99.90;;;;;;5077873;28;20462;-70
2023/02/02 07:49:38;;;;;;;32.57;23.80;;;7.00;99.90;;;;;;5070227;28;20516;-69
2023/02/02 07:52:05;;;;;;;36.93;24.43;;;7.00;99.90;;;;;;5067154;28;20463;-69
2023/02/02 07:54:33;;;;;;;28.00;23.00;;;7.00;99.90;;;;;;5069113;28;20577;-69
2023/02/02 07:57:01;;;;;;;34.27;23.57;;;7.00;99.90;;;;;;5063020;28;20483;-70
2023/02/02 07:59:27;;;;;;;41.93;25.43;;;7.00;99.90;;;;;;5065028;28;20879;-69
2023/02/02 08:01:54;;;;;;;38.17;24.40;;;7.00;99.90;;;;;;5066293;28;20483;-69
2023/02/02 08:04:21;;;;;;;30.17;23.90;;;7.00;99.90;;;;;;5076087;28;20478;-69
2023/02/02 08:06:48;;;;;;;27.43;24.23;;;7.10;99.90;;;;;;5068111;28;20466;-69
2023/02/02 08:09:14;;;;;;;29.03;25.93;;;7.10;99.90;;;;;;5066258;28;20470;-69
2023/02/02 08:11:43;;;;;;;41.27;27.37;;;7.10;99.90;;;;;;5070562;28;20462;-70
2023/02/02 08:14:12;;;;;;;41.33;26.27;;;7.10;99.90;;;;;;5064666;28;20462;-70
2023/02/02 08:16:39;;;;;;;33.90;25.90;;;7.20;99.90;;;;;;5065643;28;20462;-70
2023/02/02 08:19:06;;;;;;;29.23;25.27;;;7.20;99.90;;;;;;5071287;28;20472;-69
2023/02/02 08:21:34;;;;;;;33.87;26.30;;;7.30;99.90;;;;;;5072245;28;20462;-69
2023/02/02 08:24:01;;;;;;;33.17;25.80;;;7.30;99.90;;;;;;5068189;28;20479;-69
2023/02/02 08:26:30;;;;;;;32.23;25.00;;;7.30;99.90;;;;;;5065309;28;20550;-69
2023/02/02 08:29:00;;;;;;;37.00;23.67;;;7.30;99.90;;;;;;5069965;28;20745;-69
2023/02/02 08:31:29;;;;;;;30.90;23.13;;;7.30;99.90;;;;;;5064724;28;20485;-68
2023/02/02 08:33:57;;;;;;;35.17;24.67;;;7.30;99.90;;;;;;5067777;28;20470;-69
2023/02/02 08:36:25;;;;;;;37.03;25.23;;;7.30;99.90;;;;;;5069834;28;20584;-70
2023/02/02 08:38:52;;;;;;;28.77;24.23;;;7.30;99.90;;;;;;5072390;28;20461;-69
2023/02/02 08:41:22;;;;;;;29.37;21.83;;;7.30;99.90;;;;;;5070057;28;20916;-69
2023/02/02 08:43:49;;;;;;;30.20;24.37;;;7.30;99.90;;;;;;5066494;28;20457;-69
2023/02/02 08:46:19;;;;;;;24.73;20.83;;;7.40;99.90;;;;;;5063712;28;20466;-69
2023/02/02 08:48:46;;;;;;;29.07;22.60;;;7.40;99.90;;;;;;5066290;28;20471;-69
2023/02/02 08:51:15;;;;;;;29.93;22.43;;;7.40;99.90;;;;;;5067658;28;20486;-69
2023/02/02 08:53:41;;;;;;;30.90;22.67;;;7.50;99.90;;;;;;5068570;28;20456;-69
2023/02/02 08:56:11;;;;;;;25.53;22.70;;;7.50;99.90;;;;;;5068209;28;20475;-69
2023/02/02 08:58:38;;;;;;;25.17;22.20;;;7.50;99.90;;;;;;5065516;28;20473;-69
2023/02/02 09:01:06;;;;;;;28.53;22.70;;;7.60;99.90;;;;;;5064090;28;20469;-69
2023/02/02 09:03:38;;;;;;;24.07;21.53;;;7.60;99.90;;;;;;5068146;28;20454;-69
2023/02/02 09:06:07;;;;;;;35.97;21.73;;;7.60;99.90;;;;;;5076430;28;20577;-69
2023/02/02 09:08:34;;;;;;;34.63;22.40;;;7.60;99.90;;;;;;5071223;28;20992;-70
2023/02/02 09:11:06;;;;;;;28.10;20.93;;;7.60;99.90;;;;;;5072824;28;20528;-70
2023/02/02 09:13:33;;;;;;;31.47;22.90;;;7.70;99.90;;;;;;5069125;28;20446;-69
2023/02/02 09:16:00;;;;;;;24.90;22.47;;;7.70;99.90;;;;;;5050103;28;20472;-69
2023/02/02 09:18:27;;;;;;;28.10;24.17;;;7.60;99.90;;;;;;5058953;28;21051;-70
2023/02/02 09:20:59;;;;;;;33.87;24.03;;;7.60;99.90;;;;;;5053235;28;21078;-68
2023/02/02 09:23:25;;;;;;;27.40;24.67;;;7.60;99.90;;;;;;5059378;28;21061;-69
2023/02/02 09:25:52;;;;;;;37.97;25.30;;;7.60;99.90;;;;;;5063070;28;20483;-69
2023/02/02 09:28:19;;;;;;;35.87;25.07;;;7.50;99.90;;;;;;5070059;28;20468;-69
2023/02/02 09:30:47;;;;;;;35.30;26.00;;;7.50;99.90;;;;;;5061047;28;20471;-69
2023/02/02 09:33:14;;;;;;;30.60;25.80;;;7.50;99.90;;;;;;5059128;28;20955;-68
2023/02/02 09:35:41;;;;;;;27.13;24.23;;;7.50;99.90;;;;;;5060328;28;20466;-69
2023/02/02 09:38:09;;;;;;;35.47;25.63;;;7.50;99.90;;;;;;5063429;28;20462;-69
2023/02/02 09:40:37;;;;;;;32.30;25.63;;;7.50;99.90;;;;;;5070500;28;20493;-69
2023/02/02 09:43:17;;;;;;;29.30;26.30;;;7.50;99.90;;;;;;5059164;28;20566;-69
2023/02/02 09:45:52;;;;;;;28.67;26.17;;;7.40;99.90;;;;;;5054911;28;20498;-69
2023/02/02 09:48:26;;;;;;;29.07;26.20;;;7.40;99.90;;;;;;5058990;28;20517;-69
2023/02/02 09:50:55;;;;;;;47.03;27.93;;;7.40;99.90;;;;;;5063687;28;20964;-69
2023/02/02 09:53:39;;;;;;;33.10;28.00;;;7.50;99.90;;;;;;5063690;28;20463;-69
2023/02/02 09:56:11;;;;;;;54.00;26.70;;;7.50;99.90;;;;;;5065166;28;20463;-70
2023/02/02 09:58:45;;;;;;;32.50;26.60;;;7.50;99.90;;;;;;5065960;28;20850;-70
2023/02/02 10:01:15;;;;;;;29.10;26.20;;;7.50;99.90;;;;;;5065688;28;20458;-69
2023/02/02 10:03:56;;;;;;;29.30;26.40;;;7.50;99.90;;;;;;5062080;28;20457;-70
2023/02/02 10:06:30;;;;;;;30.33;26.80;;;7.60;99.90;;;;;;5059341;28;20487;-70
2023/02/02 10:09:07;;;;;;;30.13;26.90;;;7.50;99.90;;;;;;5060859;28;20500;-69
2023/02/02 10:11:40;;;;;;;30.73;26.30;;;7.60;99.90;;;;;;5063615;28;20937;-69
2023/02/02 10:14:17;;;;;;;29.37;26.37;;;7.60;99.90;;;;;;5065255;28;20550;-70
2023/02/02 10:16:45;;;;;;;32.33;28.13;;;7.60;99.90;;;;;;5063599;28;20471;-70
2023/02/02 10:19:14;;;;;;;28.43;26.03;;;7.60;99.90;;;;;;5071809;28;20446;-71
2023/02/02 10:21:48;;;;;;;34.13;26.67;;;7.60;99.90;;;;;;5064040;28;20473;-70
2023/02/02 10:24:20;;;;;;;37.73;27.53;;;7.60;99.90;;;;;;5064984;28;20458;-69
2023/02/02 10:26:49;;;;;;;34.03;25.87;;;7.60;99.90;;;;;;5063332;28;20481;-70
2023/02/02 10:29:17;;;;;;;36.40;24.63;;;7.60;99.90;;;;;;5067866;28;20469;-70
2023/02/02 10:31:54;;;;;;;40.03;26.67;;;7.60;99.90;;;;;;5066998;28;20474;-70
2023/02/02 10:34:26;;;;;;;31.83;25.63;;;7.70;99.90;;;;;;5064022;28;20469;-70
2023/02/02 10:37:19;;;;;;;28.97;26.03;;;7.80;99.90;;;;;;5060940;28;22126;-70
2023/02/02 10:40:04;;;;;;;29.30;26.00;;;7.80;99.90;;;;;;5062186;28;20483;-70
2023/02/02 10:42:44;;;;;;;28.20;25.20;;;7.80;99.90;;;;;;5065192;28;20470;-70
2023/02/02 10:45:15;;;;;;;55.70;25.10;;;7.80;99.90;;;;;;5067345;28;20525;-70
2023/02/02 10:47:42;;;;;;;28.10;24.67;;;7.80;99.90;;;;;;5065373;28;20465;-70
2023/02/02 10:50:16;;;;;;;35.17;25.07;;;7.80;99.90;;;;;;5067186;28;20477;-70
2023/02/02 10:52:47;;;;;;;37.63;24.37;;;7.70;99.90;;;;;;5068585;28;20563;-70
2023/02/02 10:55:21;;;;;;;26.60;24.13;;;7.80;99.90;;;;;;5067636;28;20476;-70
2023/02/02 10:57:58;;;;;;;36.13;23.50;;;7.80;99.90;;;;;;5074122;28;20482;-70
2023/02/02 11:00:31;;;;;;;25.93;23.47;;;7.90;99.90;;;;;;5060481;28;20563;-70
2023/02/02 11:03:03;;;;;;;40.50;24.20;;;8.00;99.90;;;;;;5060063;28;20819;-70
2023/02/02 11:08:18;;;;;;;24.20;21.67;;;8.10;99.90;;;;;;5063370;28;20470;-70
2023/02/02 11:10:49;;;;;;;26.90;20.17;;;8.10;99.90;;;;;;5065309;28;20467;-70
2023/02/02 11:13:29;;;;;;;34.40;20.47;;;8.10;99.90;;;;;;5068355;28;20464;-70
2023/02/02 11:16:27;;;;;;;32.00;20.00;;;8.20;99.90;;;;;;5063793;28;20469;-70
2023/02/02 11:18:55;;;;;;;20.53;17.70;;;8.20;99.90;;;;;;5066725;28;20475;-70
2023/02/02 11:21:25;;;;;;;27.23;18.57;;;8.20;99.90;;;;;;5067766;28;20501;-70
2023/02/02 11:23:59;;;;;;;23.23;15.60;;;8.20;99.90;;;;;;5064058;28;20459;-70
2023/02/02 11:26:41;;;;;;;29.20;16.70;;;8.20;99.90;;;;;;5060337;28;20550;-70
2023/02/02 11:29:15;;;;;;;20.53;15.63;;;8.30;99.90;;;;;;5067559;28;20968;-70
2023/02/02 11:31:42;;;;;;;22.60;15.10;;;8.40;99.90;;;;;;5067733;28;20462;-70
2023/02/02 11:34:18;;;;;;;23.30;15.70;;;8.40;99.90;;;;;;5069481;28;20490;-70
2023/02/02 11:37:11;;;;;;;16.90;15.33;;;8.40;99.90;;;;;;5068677;28;20529;-70
2023/02/02 11:39:39;;;;;;;24.37;16.40;;;8.50;99.90;;;;;;5073841;28;21033;-70
2023/02/02 11:42:13;;;;;;;18.03;14.20;;;8.50;99.90;;;;;;5066931;28;20474;-70
2023/02/02 11:44:43;;;;;;;21.70;14.30;;;8.60;99.90;;;;;;5065846;28;20469;-70
2023/02/02 11:47:19;;;;;;;23.90;15.17;;;8.60;99.90;;;;;;5064566;28;20463;-70
2023/02/02 11:49:46;;;;;;;19.70;15.43;;;8.70;99.90;;;;;;5068085;28;21015;-70
2023/02/02 11:52:18;;;;;;;24.77;15.87;;;8.80;99.90;;;;;;5077141;28;20963;-70
2023/02/02 11:54:49;;;;;;;22.83;16.10;;;8.90;99.90;;;;;;5074425;28;20689;-70
2023/02/02 11:57:20;;;;;;;23.33;17.50;;;8.80;99.90;;;;;;5066680;28;20494;-70
2023/02/02 11:59:48;;;;;;;20.97;15.80;;;8.90;99.90;;;;;;5065544;28;20497;-69
2023/02/02 12:02:25;;;;;;;29.60;20.40;;;8.90;99.90;;;;;;5064413;28;20495;-69
2023/02/02 12:04:53;;;;;;;23.40;16.50;;;9.00;99.90;;;;;;5057692;28;20472;-69
2023/02/02 12:07:25;;;;;;;20.30;17.03;;;9.10;99.90;;;;;;5059028;28;20549;-69
2023/02/02 12:09:52;;;;;;;29.50;18.77;;;9.10;99.90;;;;;;5062145;28;20477;-70
2023/02/02 12:12:43;;;;;;;18.70;16.80;;;9.10;99.90;;;;;;5070062;28;20463;-70
2023/02/02 12:15:22;;;;;;;18.60;16.57;;;9.00;99.90;;;;;;5066209;28;20458;-69
2023/02/02 12:17:55;;;;;;;21.57;18.10;;;9.10;99.90;;;;;;5057966;28;20473;-69
2023/02/02 12:20:29;;;;;;;19.03;16.73;;;9.10;99.90;;;;;;5060872;28;20920;-69
2023/02/02 12:23:10;;;;;;;24.90;17.60;;;9.10;99.90;;;;;;5066351;28;20935;-69
2023/02/02 12:25:52;;;;;;;21.60;16.40;;;9.10;99.90;;;;;;5061424;28;21206;-69
2023/02/02 12:28:29;;;;;;;19.23;17.03;;;9.10;99.90;;;;;;5063460;28;20468;-69
2023/02/02 12:31:05;;;;;;;19.97;17.70;;;9.00;99.90;;;;;;5066874;28;20477;-69
2023/02/02 12:33:39;;;;;;;17.33;15.73;;;9.10;99.90;;;;;;5063257;28;20467;-69
2023/02/02 12:36:21;;;;;;;24.97;16.40;;;9.10;99.90;;;;;;5069435;28;20469;-69
2023/02/02 12:39:30;;;;;;;16.77;15.17;;;9.10;99.90;;;;;;5071371;27;20563;-69
2023/02/02 12:42:25;;;;;;;18.23;15.73;;;9.20;99.90;;;;;;5055969;28;20554;-70
2023/02/02 12:45:06;;;;;;;23.53;17.23;;;9.20;99.90;;;;;;5054096;28;20474;-70
2023/02/02 12:47:39;;;;;;;17.77;15.77;;;9.30;99.90;;;;;;5055622;28;20458;-70
2023/02/02 12:50:22;;;;;;;18.20;15.57;;;9.30;99.90;;;;;;5057677;28;20466;-70
2023/02/02 12:53:08;;;;;;;18.13;16.03;;;9.40;99.90;;;;;;5050123;28;21556;-70
2023/02/02 12:55:43;;;;;;;18.80;17.10;;;9.50;99.90;;;;;;5054428;28;20467;-71
2023/02/02 12:58:18;;;;;;;17.80;16.13;;;9.60;99.90;;;;;;5057357;28;20565;-70
2023/02/02 13:01:07;;;;;;;19.60;16.17;;;9.50;99.90;;;;;;5054650;28;20464;-70
2023/02/02 13:03:47;;;;;;;17.57;15.60;;;9.50;99.90;;;;;;5054507;28;20471;-70
2023/02/02 13:06:34;;;;;;;16.63;14.87;;;9.40;99.90;;;;;;5050326;28;20901;-70
2023/02/02 13:09:06;;;;;;;16.60;15.03;;;9.40;99.90;;;;;;5051791;28;20463;-70